Time;durP1;ratioP1;P1;durP2;ratioP2;P2;SDS_P1;SDS_P2;PMS_P1;PMS_P2;Temp;Humidity;BMP_temperature;BMP_pressure;BME280_temperature;BME280_humidity;BME280_pressure;Samples;Min_cycle;Max_cycle;Signal;HPM_P1;HPM_P2
2022/12/08 00:01:18;;;;;;;2.95;1.10;;;3.90;99.90;;;;;;4994360;28;93132;-73
2022/12/08 00:03:46;;;;;;;4.63;1.00;;;3.80;99.90;;;;;;4995558;28;92463;-73
2022/12/08 00:09:27;;;;;;;3.33;1.02;;;3.80;99.90;;;;;;4991818;28;93114;-73
2022/12/08 00:12:03;;;;;;;2.58;0.95;;;3.70;99.90;;;;;;4994669;28;93644;-73
2022/12/08 00:14:32;;;;;;;2.85;0.90;;;3.70;99.90;;;;;;4995636;28;92376;-73
2022/12/08 00:17:00;;;;;;;2.42;1.02;;;3.70;99.90;;;;;;4995629;28;92811;-73
2022/12/08 00:19:27;;;;;;;2.63;0.88;;;3.70;99.90;;;;;;4992802;28;98158;-73
2022/12/08 00:21:55;;;;;;;3.03;1.13;;;3.60;99.90;;;;;;4994990;28;95351;-73
2022/12/08 00:24:28;;;;;;;4.30;1.10;;;3.60;99.90;;;;;;4995555;28;92433;-73
2022/12/08 00:26:55;;;;;;;1.95;1.08;;;3.60;99.90;;;;;;4995588;28;92534;-72
2022/12/08 00:29:22;;;;;;;1.23;1.02;;;3.60;99.90;;;;;;4993832;28;95391;-73
2022/12/08 00:31:49;;;;;;;5.75;1.42;;;3.60;99.90;;;;;;4995279;28;93022;-73
2022/12/08 00:34:17;;;;;;;6.35;1.17;;;3.60;99.90;;;;;;4993956;28;94559;-73
2022/12/08 00:36:43;;;;;;;6.07;1.30;;;3.70;99.90;;;;;;4994089;28;91705;-73
2022/12/08 00:39:12;;;;;;;4.28;1.20;;;3.70;99.90;;;;;;4995199;28;93247;-73
2022/12/08 00:44:24;;;;;;;4.13;1.20;;;3.80;99.90;;;;;;4996825;28;94934;-72
2022/12/08 00:46:51;;;;;;;5.40;1.10;;;3.90;99.90;;;;;;4997172;28;92483;-73
2022/12/08 00:49:18;;;;;;;3.30;1.10;;;3.90;99.90;;;;;;4998631;28;92550;-73
2022/12/08 00:51:45;;;;;;;1.92;1.13;;;4.00;99.90;;;;;;4998458;28;92974;-73
2022/12/08 00:54:12;;;;;;;6.78;1.20;;;4.00;99.90;;;;;;4997389;28;92406;-73
2022/12/08 00:56:39;;;;;;;2.38;1.20;;;4.10;99.90;;;;;;4997236;28;92458;-73
2022/12/08 00:59:06;;;;;;;4.80;1.13;;;4.10;99.90;;;;;;4998426;28;92479;-73
2022/12/08 01:01:34;;;;;;;3.00;0.77;;;4.20;99.90;;;;;;4998512;28;93002;-73
2022/12/08 01:04:09;;;;;;;2.05;1.00;;;4.20;99.90;;;;;;4996884;28;98358;-73
2022/12/08 01:06:37;;;;;;;2.58;0.93;;;4.20;99.90;;;;;;4998524;28;92426;-73
2022/12/08 01:09:06;;;;;;;4.05;1.20;;;4.30;99.90;;;;;;4996885;28;95613;-73
2022/12/08 01:11:35;;;;;;;3.83;1.23;;;4.30;99.90;;;;;;4996889;28;95282;-73
2022/12/08 01:14:02;;;;;;;3.85;1.38;;;4.40;99.90;;;;;;4998298;28;92815;-73
2022/12/08 01:16:34;;;;;;;4.10;1.30;;;4.40;99.90;;;;;;4996816;28;92521;-73
2022/12/08 01:19:02;;;;;;;1.92;0.90;;;4.50;99.90;;;;;;4997061;28;93699;-73
2022/12/08 01:21:29;;;;;;;1.55;1.00;;;4.50;99.90;;;;;;4998071;28;93068;-73
2022/12/08 01:23:59;;;;;;;5.70;1.00;;;4.50;99.90;;;;;;4998135;28;92424;-73
2022/12/08 01:26:26;;;;;;;2.65;1.00;;;4.60;99.90;;;;;;4998535;28;92209;-73
2022/12/08 01:28:53;;;;;;;2.30;1.20;;;4.60;99.90;;;;;;4997701;28;93385;-73
2022/12/08 01:31:21;;;;;;;8.30;1.55;;;4.70;99.90;;;;;;4998023;28;93252;-73
2022/12/08 01:33:48;;;;;;;2.17;1.20;;;4.70;99.90;;;;;;4996585;28;95315;-73
2022/12/08 01:36:21;;;;;;;2.55;1.23;;;4.60;99.90;;;;;;4997938;28;92459;-73
2022/12/08 01:38:49;;;;;;;3.40;1.53;;;4.60;99.90;;;;;;4996482;28;93385;-73
2022/12/08 01:41:19;;;;;;;2.47;1.50;;;4.60;99.90;;;;;;4997493;28;93038;-73
2022/12/08 01:44:03;;;;;;;4.35;1.55;;;4.50;99.90;;;;;;4997653;28;92985;-73
2022/12/08 01:46:32;;;;;;;1.90;1.48;;;4.50;99.90;;;;;;4998131;28;92386;-72
2022/12/08 01:49:05;;;;;;;3.10;1.30;;;4.50;99.90;;;;;;4997243;28;92976;-73
2022/12/08 01:51:39;;;;;;;2.10;1.10;;;4.50;99.90;;;;;;4996448;28;95478;-73
2022/12/08 01:54:07;;;;;;;2.55;0.88;;;4.50;99.90;;;;;;4995709;28;92543;-73
2022/12/08 01:56:46;;;;;;;1.58;1.10;;;4.50;99.90;;;;;;4996517;28;92598;-72
2022/12/08 01:59:15;;;;;;;2.38;1.30;;;4.50;99.90;;;;;;4978290;28;97417;-73
2022/12/08 02:01:42;;;;;;;4.93;1.42;;;4.40;99.90;;;;;;4995866;28;98150;-73
2022/12/08 02:04:10;;;;;;;3.50;1.02;;;4.40;99.90;;;;;;4996257;28;92434;-73
2022/12/08 02:06:40;;;;;;;3.28;1.42;;;4.40;99.90;;;;;;4997532;28;92396;-73
2022/12/08 02:09:07;;;;;;;1.70;1.20;;;4.40;99.90;;;;;;4997377;28;93166;-73
2022/12/08 02:11:34;;;;;;;2.83;1.20;;;4.30;99.90;;;;;;4997206;28;93629;-73
2022/12/08 02:14:07;;;;;;;2.75;1.42;;;4.40;99.90;;;;;;4963568;28;92462;-73
2022/12/08 02:17:03;;;;;;;2.92;1.30;;;4.40;99.90;;;;;;4997444;28;91669;-73
2022/12/08 02:19:39;;;;;;;3.83;1.40;;;4.40;99.90;;;;;;4979960;28;95867;-73
2022/12/08 02:22:06;;;;;;;1.77;1.27;;;4.40;99.90;;;;;;4997139;28;93059;-72
2022/12/08 02:24:42;;;;;;;2.78;1.50;;;4.40;99.90;;;;;;4994679;28;94779;-73
2022/12/08 02:27:41;;;;;;;4.05;1.70;;;4.50;99.90;;;;;;4996534;28;92493;-72
2022/12/08 02:30:11;;;;;;;2.53;1.67;;;4.50;99.90;;;;;;4996759;28;93344;-73
2022/12/08 02:32:58;;;;;;;1.45;1.30;;;4.30;99.90;;;;;;4979035;28;94054;-73
2022/12/08 02:35:33;;;;;;;2.85;1.48;;;4.40;99.90;;;;;;4995404;28;92428;-73
2022/12/08 02:38:28;;;;;;;4.15;1.58;;;4.30;99.90;;;;;;4996675;28;92502;-73
2022/12/08 02:41:16;;;;;;;2.72;1.38;;;4.30;99.90;;;;;;4996855;28;92364;-73
2022/12/08 02:43:47;;;;;;;2.22;1.30;;;4.30;99.90;;;;;;4996635;28;93029;-72
2022/12/08 02:46:23;;;;;;;1.75;1.25;;;4.30;99.90;;;;;;4996128;28;92574;-73
2022/12/08 02:48:51;;;;;;;1.42;1.15;;;4.30;99.90;;;;;;4995108;28;92813;-73
2022/12/08 02:51:18;;;;;;;5.25;1.50;;;4.30;99.90;;;;;;4995297;28;95783;-73
2022/12/08 02:53:45;;;;;;;2.90;1.50;;;4.30;99.90;;;;;;4996512;28;95446;-73
2022/12/08 02:56:31;;;;;;;1.98;1.60;;;4.30;99.90;;;;;;4995177;28;92419;-73
2022/12/08 02:59:07;;;;;;;4.43;1.85;;;4.30;99.90;;;;;;4996017;28;92424;-73
2022/12/08 03:01:56;;;;;;;2.17;1.40;;;4.30;99.90;;;;;;4996575;28;93225;-73
2022/12/08 03:04:41;;;;;;;3.55;1.75;;;4.30;99.90;;;;;;4995380;28;92990;-73
2022/12/08 03:07:39;;;;;;;4.53;1.83;;;4.30;99.90;;;;;;4995157;28;92529;-73
2022/12/08 03:10:18;;;;;;;2.70;1.27;;;4.30;99.90;;;;;;4978671;28;91596;-73
2022/12/08 03:12:50;;;;;;;3.53;1.45;;;4.30;99.90;;;;;;4995171;28;94924;-72
2022/12/08 03:15:20;;;;;;;1.77;0.98;;;4.30;99.90;;;;;;5011387;28;95790;-73
2022/12/08 03:17:53;;;;;;;3.80;1.30;;;4.30;99.90;;;;;;4993851;28;94947;-73
2022/12/08 03:20:22;;;;;;;1.60;0.80;;;4.40;99.90;;;;;;4996674;28;92357;-73
2022/12/08 03:22:53;;;;;;;1.33;0.75;;;4.40;99.90;;;;;;4994900;28;95602;-73
2022/12/08 03:25:23;;;;;;;0.98;0.90;;;4.40;99.90;;;;;;4994935;28;92947;-73
2022/12/08 03:27:51;;;;;;;2.47;1.02;;;4.50;99.90;;;;;;4996444;28;92460;-73
2022/12/08 03:30:18;;;;;;;3.33;0.95;;;4.50;99.90;;;;;;4994411;28;92553;-73
2022/12/08 03:32:51;;;;;;;3.95;0.80;;;4.50;99.90;;;;;;4996244;28;93329;-73
2022/12/08 03:35:25;;;;;;;2.00;0.87;;;4.60;99.90;;;;;;4996533;28;93174;-73
2022/12/08 03:38:02;;;;;;;0.70;0.70;;;4.60;99.90;;;;;;4994722;28;92457;-73
2022/12/08 03:40:29;;;;;;;2.15;1.00;;;4.60;99.90;;;;;;4996437;28;92341;-73
2022/12/08 03:42:56;;;;;;;1.50;1.00;;;4.60;99.90;;;;;;4994602;28;95510;-73
2022/12/08 03:45:22;;;;;;;2.10;0.95;;;4.70;99.90;;;;;;4977813;28;98152;-73
2022/12/08 03:47:50;;;;;;;1.08;0.88;;;4.60;99.90;;;;;;4996247;28;92962;-73
2022/12/08 03:50:17;;;;;;;0.82;0.82;;;4.60;99.90;;;;;;4994185;28;92552;-73
2022/12/08 03:52:44;;;;;;;1.00;0.90;;;4.60;99.90;;;;;;4995435;28;105821;-73
2022/12/08 03:55:11;;;;;;;2.22;1.00;;;4.60;99.90;;;;;;4993998;28;94793;-73
2022/12/08 03:57:38;;;;;;;1.55;0.80;;;4.60;99.90;;;;;;4995596;28;92480;-73
2022/12/08 04:00:06;;;;;;;1.05;0.80;;;4.60;99.90;;;;;;4996122;28;91727;-73
2022/12/08 04:02:33;;;;;;;2.75;0.85;;;4.60;99.90;;;;;;4995236;28;98686;-73
2022/12/08 04:05:00;;;;;;;1.50;0.70;;;4.60;99.90;;;;;;4993949;28;92912;-73
2022/12/08 04:07:28;;;;;;;0.77;0.77;;;4.60;99.90;;;;;;4994775;28;94832;-73
2022/12/08 04:09:55;;;;;;;2.80;0.82;;;4.60;99.90;;;;;;4995538;28;92732;-73
2022/12/08 04:12:22;;;;;;;1.65;0.75;;;4.60;99.90;;;;;;5010564;28;95866;-73
2022/12/08 04:14:49;;;;;;;4.22;0.90;;;4.50;99.90;;;;;;4994409;28;92833;-73
2022/12/08 04:17:16;;;;;;;3.03;0.93;;;4.50;99.90;;;;;;4976959;28;92495;-73
2022/12/08 04:19:43;;;;;;;1.50;0.60;;;4.50;99.90;;;;;;4995661;28;92475;-73
2022/12/08 04:22:09;;;;;;;2.58;0.68;;;4.50;99.90;;;;;;4993940;28;95609;-73
2022/12/08 04:24:36;;;;;;;1.02;0.70;;;4.40;99.90;;;;;;4994434;28;95418;-73
2022/12/08 04:27:03;;;;;;;1.17;0.80;;;4.40;99.90;;;;;;4977485;28;92456;-73
2022/12/08 04:29:30;;;;;;;1.02;0.57;;;4.40;99.90;;;;;;4994203;28;93640;-73
2022/12/08 04:31:57;;;;;;;2.38;0.60;;;4.40;99.90;;;;;;4993956;28;95763;-73
2022/12/08 04:34:24;;;;;;;1.75;0.60;;;4.40;99.90;;;;;;4993848;28;95421;-73
2022/12/08 04:36:51;;;;;;;2.10;0.70;;;4.40;99.90;;;;;;4994036;28;92574;-73
2022/12/08 04:39:18;;;;;;;0.50;0.50;;;4.40;99.90;;;;;;4995202;28;92420;-73
2022/12/08 04:41:45;;;;;;;0.63;0.63;;;4.40;99.90;;;;;;4993769;28;95909;-73
2022/12/08 04:44:11;;;;;;;2.35;0.73;;;4.40;99.90;;;;;;4993799;28;92979;-73
2022/12/08 04:46:38;;;;;;;1.30;0.73;;;4.40;99.90;;;;;;4995205;28;92447;-73
2022/12/08 04:49:09;;;;;;;1.08;0.50;;;4.40;99.90;;;;;;4995491;28;91611;-73
2022/12/08 04:51:36;;;;;;;1.45;0.68;;;4.40;99.90;;;;;;4995175;28;93247;-73
2022/12/08 04:54:03;;;;;;;0.60;0.60;;;4.40;99.90;;;;;;4995057;28;93003;-73
2022/12/08 04:56:30;;;;;;;2.05;0.80;;;4.40;99.90;;;;;;4992329;28;94820;-73
2022/12/08 04:58:56;;;;;;;0.63;0.55;;;4.40;99.90;;;;;;4993445;28;103671;-73
2022/12/08 05:01:24;;;;;;;1.52;0.63;;;4.40;99.90;;;;;;4993150;28;98429;-74
2022/12/08 05:03:51;;;;;;;0.60;0.60;;;4.40;99.90;;;;;;4993700;28;93157;-73
2022/12/08 05:06:18;;;;;;;1.00;0.60;;;4.50;99.90;;;;;;4994950;28;92428;-73
2022/12/08 05:08:45;;;;;;;0.52;0.52;;;4.50;99.90;;;;;;4993398;28;92641;-73
2022/12/08 05:11:13;;;;;;;1.05;1.05;;;4.50;99.90;;;;;;4993326;28;93279;-73
2022/12/08 05:13:40;;;;;;;1.02;0.70;;;4.50;99.90;;;;;;4993634;28;95527;-73
2022/12/08 05:16:10;;;;;;;0.95;0.60;;;4.50;99.90;;;;;;4977184;28;93135;-73
2022/12/08 05:18:38;;;;;;;1.80;0.60;;;4.50;99.90;;;;;;5010235;28;92511;-73
2022/12/08 05:21:05;;;;;;;0.57;0.57;;;4.50;99.90;;;;;;4993400;28;95679;-73
2022/12/08 05:23:32;;;;;;;0.60;0.50;;;4.50;99.90;;;;;;4993112;28;95508;-73
2022/12/08 05:26:00;;;;;;;1.33;0.68;;;4.50;99.90;;;;;;4993762;28;92928;-73
2022/12/08 05:28:27;;;;;;;0.65;0.60;;;4.50;99.90;;;;;;4995779;28;93842;-73
2022/12/08 05:31:11;;;;;;;0.50;0.50;;;4.60;99.90;;;;;;4998044;28;92912;-73
2022/12/08 05:33:39;;;;;;;0.90;0.50;;;4.60;99.90;;;;;;4996520;28;94463;-73
2022/12/08 05:36:07;;;;;;;0.40;0.40;;;4.60;99.90;;;;;;4963931;28;92464;-73
2022/12/08 05:38:34;;;;;;;0.40;0.40;;;4.60;99.90;;;;;;4997035;28;92285;-73
2022/12/08 05:41:01;;;;;;;0.52;0.50;;;4.60;99.90;;;;;;4997520;28;93277;-73
2022/12/08 05:43:28;;;;;;;1.23;0.70;;;4.60;99.90;;;;;;4996169;28;94708;-73
2022/12/08 05:45:55;;;;;;;1.33;0.60;;;4.60;99.90;;;;;;4978995;28;94892;-72
2022/12/08 05:48:22;;;;;;;0.40;0.40;;;4.70;99.90;;;;;;4979832;28;92563;-73
2022/12/08 05:50:49;;;;;;;1.27;0.60;;;4.70;99.90;;;;;;4995919;28;108597;-73
2022/12/08 05:53:18;;;;;;;2.70;0.45;;;4.70;99.90;;;;;;4997455;28;92771;-73
2022/12/08 05:55:46;;;;;;;0.73;0.32;;;4.70;99.90;;;;;;4996608;28;92486;-73
2022/12/08 05:58:19;;;;;;;0.40;0.40;;;4.70;99.90;;;;;;4995794;28;92465;-73
2022/12/08 06:00:47;;;;;;;1.33;0.75;;;4.70;99.90;;;;;;4996242;28;95858;-73
2022/12/08 06:03:16;;;;;;;0.93;0.30;;;4.70;99.90;;;;;;4996585;28;93143;-73
2022/12/08 06:05:45;;;;;;;0.52;0.40;;;4.70;99.90;;;;;;4979864;28;92456;-72
2022/12/08 06:08:12;;;;;;;2.63;0.60;;;4.70;99.90;;;;;;4996166;28;92461;-73
2022/12/08 06:10:44;;;;;;;0.75;0.50;;;4.70;99.90;;;;;;4994233;28;98656;-73
2022/12/08 06:13:11;;;;;;;0.43;0.32;;;4.70;99.90;;;;;;4995890;28;96332;-73
2022/12/08 06:15:39;;;;;;;0.30;0.30;;;4.70;99.90;;;;;;4979172;28;92495;-73
2022/12/08 06:18:07;;;;;;;4.53;0.75;;;4.70;99.90;;;;;;4995985;28;92566;-73
2022/12/08 06:20:34;;;;;;;1.33;0.45;;;4.70;99.90;;;;;;4996787;28;93371;-72
2022/12/08 06:23:02;;;;;;;1.00;0.40;;;4.70;99.90;;;;;;4995926;28;93025;-73
2022/12/08 06:25:29;;;;;;;0.95;0.60;;;4.70;99.90;;;;;;4995910;28;92524;-73
2022/12/08 06:27:56;;;;;;;2.35;0.55;;;4.60;99.90;;;;;;4997695;28;91695;-73
2022/12/08 06:30:23;;;;;;;0.65;0.57;;;4.60;99.90;;;;;;4996733;28;92345;-73
2022/12/08 06:32:50;;;;;;;2.08;0.50;;;4.60;99.90;;;;;;4979068;28;95541;-73
2022/12/08 06:35:17;;;;;;;0.50;0.50;;;4.60;99.90;;;;;;4994733;28;94930;-73
2022/12/08 06:37:43;;;;;;;0.93;0.57;;;4.60;99.90;;;;;;4995665;28;92472;-73
2022/12/08 06:40:11;;;;;;;2.13;1.70;;;4.60;99.90;;;;;;4995149;28;93195;-73
2022/12/08 06:42:46;;;;;;;1.15;0.60;;;4.50;99.90;;;;;;4978646;28;95953;-73
2022/12/08 06:45:15;;;;;;;0.65;0.50;;;4.50;99.90;;;;;;4995976;28;92383;-73
2022/12/08 06:47:42;;;;;;;0.40;0.40;;;4.50;99.90;;;;;;5012034;28;93591;-73
2022/12/08 06:50:10;;;;;;;1.05;0.50;;;4.50;99.90;;;;;;4995482;28;93247;-73
2022/12/08 06:52:39;;;;;;;0.75;0.40;;;4.50;99.90;;;;;;4995214;28;95971;-72
2022/12/08 06:55:15;;;;;;;0.47;0.47;;;4.50;99.90;;;;;;4995907;28;92501;-73
2022/12/08 06:58:02;;;;;;;1.30;0.60;;;4.50;99.90;;;;;;4995055;28;92602;-73
2022/12/08 07:00:29;;;;;;;1.00;0.70;;;4.40;99.90;;;;;;4977649;28;95600;-73
2022/12/08 07:02:56;;;;;;;1.80;0.80;;;4.40;99.90;;;;;;4996160;28;105957;-73
2022/12/08 07:05:23;;;;;;;0.85;0.70;;;4.40;99.90;;;;;;4996718;28;92488;-73
2022/12/08 07:07:50;;;;;;;1.42;0.70;;;4.40;99.90;;;;;;4995304;28;92468;-73
2022/12/08 07:10:17;;;;;;;3.63;0.98;;;4.40;99.90;;;;;;4996466;28;93026;-73
2022/12/08 07:12:44;;;;;;;1.65;0.80;;;4.30;99.90;;;;;;4995841;28;93025;-72
2022/12/08 07:15:11;;;;;;;2.58;0.57;;;4.30;99.90;;;;;;4996557;28;92459;-73
2022/12/08 07:17:38;;;;;;;0.93;0.70;;;4.30;99.90;;;;;;4995119;28;91774;-73
2022/12/08 07:20:06;;;;;;;1.77;0.80;;;4.30;99.90;;;;;;4995091;28;93841;-73
2022/12/08 07:22:33;;;;;;;3.45;0.70;;;4.30;99.90;;;;;;4994320;28;95671;-73
2022/12/08 07:25:00;;;;;;;0.75;0.60;;;4.20;99.90;;;;;;4993689;28;94990;-73
2022/12/08 07:27:27;;;;;;;0.85;0.60;;;4.20;99.90;;;;;;4996241;28;92724;-73
2022/12/08 07:29:54;;;;;;;0.98;0.70;;;4.20;99.90;;;;;;4994772;28;94832;-73
2022/12/08 07:32:21;;;;;;;2.42;0.75;;;4.30;99.90;;;;;;4994568;28;95593;-73
2022/12/08 07:34:48;;;;;;;2.40;1.10;;;4.20;99.90;;;;;;4996069;28;92443;-73
2022/12/08 07:37:15;;;;;;;1.25;1.20;;;4.30;99.90;;;;;;4996237;28;92928;-73
2022/12/08 07:39:43;;;;;;;3.88;1.20;;;4.30;99.90;;;;;;4995650;28;93313;-73
2022/12/08 07:42:10;;;;;;;1.50;1.40;;;4.20;99.90;;;;;;4994966;28;95722;-73
2022/12/08 07:44:37;;;;;;;2.28;1.40;;;4.20;99.90;;;;;;4994512;28;92864;-73
2022/12/08 07:47:04;;;;;;;3.35;2.60;;;4.20;99.90;;;;;;4995985;28;92445;-73
2022/12/08 07:49:31;;;;;;;5.35;2.08;;;4.20;99.90;;;;;;4976633;28;98406;-73
2022/12/08 07:51:57;;;;;;;3.55;1.92;;;4.20;99.90;;;;;;4994763;28;95479;-73
2022/12/08 07:54:24;;;;;;;3.70;1.85;;;4.20;99.90;;;;;;4994473;28;92384;-73
2022/12/08 07:56:51;;;;;;;2.83;2.20;;;4.20;99.90;;;;;;4995755;28;93048;-73
2022/12/08 07:59:18;;;;;;;3.22;2.20;;;4.20;99.90;;;;;;4995384;28;93172;-73
2022/12/08 08:01:47;;;;;;;2.42;2.20;;;4.10;99.90;;;;;;4995198;28;99008;-73
2022/12/08 08:04:32;;;;;;;4.55;2.72;;;4.10;99.90;;;;;;4966965;28;92458;-73
2022/12/08 08:06:59;;;;;;;3.80;2.47;;;4.00;99.90;;;;;;4996092;28;91733;-73
2022/12/08 08:09:25;;;;;;;3.10;2.70;;;3.90;99.90;;;;;;4977894;28;93285;-73
2022/12/08 08:11:52;;;;;;;3.42;2.88;;;3.90;99.90;;;;;;4993885;28;92941;-73
2022/12/08 08:14:39;;;;;;;4.90;3.10;;;3.80;99.90;;;;;;4979315;28;94879;-73
2022/12/08 08:17:06;;;;;;;5.55;3.60;;;3.70;99.90;;;;;;4994358;28;92452;-72
2022/12/08 08:19:33;;;;;;;5.10;3.72;;;3.70;99.90;;;;;;4993842;28;96333;-72
2022/12/08 08:22:00;;;;;;;5.13;3.75;;;3.60;99.90;;;;;;4993425;28;92582;-73
2022/12/08 08:24:27;;;;;;;5.57;3.42;;;3.60;99.90;;;;;;4995647;28;92472;-72
2022/12/08 08:26:54;;;;;;;5.55;3.97;;;3.60;99.90;;;;;;4995296;28;92454;-72
2022/12/08 08:29:21;;;;;;;4.47;3.67;;;3.50;99.90;;;;;;4995473;28;93193;-72
2022/12/08 08:31:48;;;;;;;4.65;3.83;;;3.50;99.90;;;;;;4995406;28;92984;-73
2022/12/08 08:34:16;;;;;;;4.72;3.65;;;3.40;99.90;;;;;;4995151;28;92329;-72
2022/12/08 08:36:43;;;;;;;5.38;3.47;;;3.40;99.90;;;;;;4993729;28;95968;-72
2022/12/08 08:39:11;;;;;;;6.82;4.35;;;3.40;99.90;;;;;;4992388;28;98396;-72
2022/12/08 08:41:38;;;;;;;5.10;3.60;;;3.30;99.90;;;;;;4994000;28;95330;-73
2022/12/08 08:44:05;;;;;;;5.50;3.38;;;3.30;99.90;;;;;;4994325;28;92438;-72
2022/12/08 08:46:32;;;;;;;3.55;3.25;;;3.30;99.90;;;;;;4993647;28;92473;-72
2022/12/08 08:49:00;;;;;;;5.32;3.72;;;3.30;99.90;;;;;;4995127;28;93331;-72
2022/12/08 08:51:27;;;;;;;5.93;3.10;;;3.20;99.90;;;;;;4977070;28;95496;-73
2022/12/08 08:53:54;;;;;;;5.00;3.17;;;3.20;99.90;;;;;;4993763;28;92484;-72
2022/12/08 08:56:21;;;;;;;4.68;2.90;;;3.20;99.90;;;;;;4994155;28;91596;-73
2022/12/08 08:58:49;;;;;;;8.63;3.17;;;3.20;99.90;;;;;;4976416;28;101563;-72
2022/12/08 09:01:19;;;;;;;4.72;2.60;;;3.20;99.90;;;;;;4993370;28;95722;-72
2022/12/08 09:03:47;;;;;;;4.28;2.42;;;3.20;99.90;;;;;;4995859;28;95069;-73
2022/12/08 09:06:14;;;;;;;3.90;2.65;;;3.20;99.90;;;;;;4998482;28;92433;-73
2022/12/08 09:08:42;;;;;;;4.03;2.50;;;3.20;99.90;;;;;;4980419;28;95946;-73
2022/12/08 09:11:09;;;;;;;6.93;2.35;;;3.20;99.90;;;;;;4997114;28;93026;-73
2022/12/08 09:13:37;;;;;;;2.78;2.15;;;3.20;99.90;;;;;;4997298;28;92442;-73
2022/12/08 09:16:06;;;;;;;2.60;2.35;;;3.20;99.90;;;;;;4996906;28;92502;-73
2022/12/08 09:18:34;;;;;;;7.28;2.67;;;3.30;99.90;;;;;;4998144;28;92432;-73
2022/12/08 09:21:07;;;;;;;2.58;2.15;;;3.30;99.90;;;;;;4997069;28;93060;-73
2022/12/08 09:23:34;;;;;;;2.72;2.30;;;3.30;99.90;;;;;;4997216;28;92755;-73
2022/12/08 09:26:03;;;;;;;3.35;2.45;;;3.30;99.90;;;;;;4996830;28;92441;-73
2022/12/08 09:28:31;;;;;;;4.13;2.40;;;3.40;99.90;;;;;;4995163;28;98152;-73
2022/12/08 09:30:58;;;;;;;4.82;2.97;;;3.40;99.90;;;;;;4997572;28;95102;-72
2022/12/08 09:33:26;;;;;;;2.28;2.00;;;3.50;99.90;;;;;;4998076;28;92861;-73
2022/12/08 09:35:53;;;;;;;3.03;2.60;;;3.60;99.90;;;;;;4980066;28;92627;-73
2022/12/08 09:38:20;;;;;;;5.22;3.00;;;3.70;99.90;;;;;;4997891;28;93215;-73
2022/12/08 09:40:54;;;;;;;5.45;2.92;;;3.70;99.90;;;;;;4996584;28;92974;-73
2022/12/08 09:43:39;;;;;;;3.72;2.85;;;3.80;99.90;;;;;;4996771;28;92454;-73
2022/12/08 09:46:09;;;;;;;4.95;3.10;;;3.80;99.90;;;;;;4998230;28;91694;-73
2022/12/08 09:48:46;;;;;;;4.38;3.47;;;3.80;99.90;;;;;;4997641;28;93320;-73
2022/12/08 09:51:15;;;;;;;5.38;2.70;;;3.70;99.90;;;;;;4996174;28;96200;-72
2022/12/08 09:53:49;;;;;;;5.05;3.17;;;3.70;99.90;;;;;;4996772;28;95407;-73
2022/12/08 09:56:22;;;;;;;3.90;2.88;;;3.80;99.90;;;;;;4996751;28;92477;-73
2022/12/08 09:58:58;;;;;;;5.60;3.17;;;3.80;99.90;;;;;;4997259;28;93311;-72
2022/12/08 10:01:29;;;;;;;5.00;3.10;;;3.80;99.90;;;;;;4997715;28;93132;-72
2022/12/08 10:03:57;;;;;;;4.70;3.10;;;3.80;99.90;;;;;;4997537;28;92453;-73
2022/12/08 10:06:31;;;;;;;3.22;2.50;;;3.80;99.90;;;;;;4979559;28;92611;-73
2022/12/08 10:09:23;;;;;;;3.05;2.50;;;4.00;99.90;;;;;;4997332;28;93375;-73
2022/12/08 10:11:56;;;;;;;3.08;2.63;;;4.10;99.90;;;;;;4996232;28;95925;-72
2022/12/08 10:14:44;;;;;;;5.97;2.53;;;4.20;99.90;;;;;;4996599;28;92445;-72
2022/12/08 10:17:11;;;;;;;8.27;2.85;;;4.30;99.90;;;;;;4997452;28;92389;-72
2022/12/08 10:19:39;;;;;;;4.78;2.33;;;4.40;99.90;;;;;;4995987;28;95642;-72
2022/12/08 10:22:31;;;;;;;2.72;2.10;;;4.60;99.90;;;;;;4996532;28;100407;-72
2022/12/08 10:25:04;;;;;;;3.92;2.13;;;4.80;99.90;;;;;;5012502;28;92474;-72
2022/12/08 10:27:34;;;;;;;2.10;1.80;;;4.90;99.90;;;;;;4997452;28;92349;-72
2022/12/08 10:30:12;;;;;;;5.78;1.58;;;5.10;99.90;;;;;;4995813;28;93033;-73
2022/12/08 10:32:43;;;;;;;3.75;1.42;;;5.30;99.90;;;;;;4997266;28;93108;-72
2022/12/08 10:35:13;;;;;;;3.17;1.40;;;5.40;99.90;;;;;;4978999;28;92548;-73
2022/12/08 10:37:47;;;;;;;1.30;1.20;;;5.60;99.90;;;;;;4996568;28;92048;-73
2022/12/08 10:40:17;;;;;;;2.50;1.80;;;5.80;99.90;;;;;;4995265;28;95831;-72
2022/12/08 10:42:53;;;;;;;6.25;1.60;;;5.90;99.90;;;;;;4995498;28;95474;-73
2022/12/08 10:45:29;;;;;;;1.77;1.48;;;6.00;99.90;;;;;;5011192;28;95140;-72
2022/12/08 10:48:12;;;;;;;2.28;1.40;;;6.10;99.90;;;;;;4995316;28;92486;-72
2022/12/08 10:50:57;;;;;;;2.95;1.60;;;6.20;99.90;;;;;;4995669;28;93333;-72
2022/12/08 10:53:43;;;;;;;3.13;1.50;;;6.20;99.90;;;;;;4996805;28;93054;-72
2022/12/08 10:56:16;;;;;;;2.35;1.35;;;6.20;99.90;;;;;;4995387;28;92514;-73
2022/12/08 10:58:45;;;;;;;3.70;1.50;;;6.30;99.90;;;;;;4996689;28;92469;-73
2022/12/08 11:01:17;;;;;;;4.20;1.50;;;6.20;99.90;;;;;;4994883;28;94473;-73
2022/12/08 11:03:49;;;;;;;1.80;0.98;;;6.20;99.90;;;;;;5012150;28;95500;-72
2022/12/08 11:06:22;;;;;;;2.88;1.20;;;6.20;99.90;;;;;;4995511;28;92433;-73
2022/12/08 11:08:55;;;;;;;4.97;1.20;;;6.10;99.90;;;;;;4996799;28;92488;-73
2022/12/08 11:11:56;;;;;;;3.97;1.25;;;6.10;99.90;;;;;;4994986;28;95714;-72
2022/12/08 11:14:31;;;;;;;1.50;1.10;;;6.10;99.90;;;;;;4994533;28;98155;-73
2022/12/08 11:17:23;;;;;;;6.65;1.90;;;6.10;99.90;;;;;;4996591;28;92932;-72
2022/12/08 11:20:02;;;;;;;2.33;1.60;;;6.30;99.90;;;;;;4995499;28;92441;-72
2022/12/08 11:22:33;;;;;;;4.13;1.45;;;6.30;99.90;;;;;;4996655;28;93299;-72
2022/12/08 11:25:06;;;;;;;2.70;1.38;;;6.30;99.90;;;;;;4996550;28;92923;-73
2022/12/08 11:27:35;;;;;;;4.90;1.10;;;6.50;99.90;;;;;;4995368;28;92552;-73
2022/12/08 11:30:12;;;;;;;3.45;1.40;;;6.60;99.90;;;;;;4996743;28;92304;-73
2022/12/08 11:32:48;;;;;;;4.35;1.40;;;6.80;99.90;;;;;;4996235;28;93207;-73
2022/12/08 11:35:31;;;;;;;4.20;1.50;;;6.90;99.90;;;;;;4995996;28;92502;-72
2022/12/08 11:38:05;;;;;;;4.18;1.40;;;7.00;99.90;;;;;;4995232;28;94811;-73
2022/12/08 11:40:50;;;;;;;3.92;1.67;;;7.10;99.90;;;;;;4995224;28;92548;-73
2022/12/08 11:43:56;;;;;;;3.22;1.30;;;7.20;99.90;;;;;;4994639;28;93296;-73
2022/12/08 11:47:01;;;;;;;2.20;1.10;;;7.50;99.90;;;;;;4995965;28;92752;-73
2022/12/08 11:49:40;;;;;;;3.30;1.30;;;7.80;99.90;;;;;;4995915;28;92407;-72
2022/12/08 11:52:11;;;;;;;1.77;1.00;;;8.00;99.90;;;;;;4995471;28;92491;-73
2022/12/08 11:54:56;;;;;;;4.05;1.48;;;8.10;99.90;;;;;;4995133;28;93272;-72
2022/12/08 11:57:27;;;;;;;3.67;1.30;;;8.20;99.90;;;;;;4995398;28;91697;-73
2022/12/08 11:59:56;;;;;;;3.20;1.50;;;8.10;99.90;;;;;;4996010;28;93027;-73
2022/12/08 12:02:27;;;;;;;2.10;0.90;;;8.10;99.90;;;;;;4995505;28;92395;-73
2022/12/08 12:05:28;;;;;;;2.08;1.38;;;8.00;99.90;;;;;;4992753;28;98120;-72
2022/12/08 12:08:28;;;;;;;3.47;1.33;;;8.00;99.90;;;;;;4994428;28;95585;-73
2022/12/08 12:12:11;;;;;;;1.92;1.23;;;8.00;99.90;;;;;;4995975;28;92479;-73
2022/12/08 12:14:22;;;;;;;2.83;1.38;;;7.90;99.90;;;;;;4995260;28;92453;-72
2022/12/08 12:17:30;;;;;;;4.80;1.48;;;7.80;99.90;;;;;;4994398;28;93322;-73
2022/12/08 12:20:02;;;;;;;6.10;1.70;;;7.80;99.90;;;;;;4994232;28;92921;-73
2022/12/08 12:22:34;;;;;;;3.85;2.13;;;7.70;99.90;;;;;;4995245;28;92503;-73
2022/12/08 12:25:02;;;;;;;3.92;1.70;;;7.70;99.90;;;;;;4994882;28;91667;-73
2022/12/08 12:27:37;;;;;;;5.18;1.40;;;7.60;99.90;;;;;;4993884;28;93850;-72
2022/12/08 12:30:18;;;;;;;2.90;1.33;;;7.50;99.90;;;;;;4994011;28;95809;-72
2022/12/08 12:32:52;;;;;;;7.10;1.63;;;7.50;99.90;;;;;;4976357;28;95079;-72
2022/12/08 12:35:41;;;;;;;3.53;1.40;;;7.40;99.90;;;;;;4994247;28;92423;-73
2022/12/08 12:41:13;;;;;;;3.13;1.60;;;7.50;99.90;;;;;;4998925;28;93050;-72
2022/12/08 12:44:12;;;;;;;5.78;2.00;;;7.40;99.90;;;;;;4998711;28;92540;-72
2022/12/08 12:46:47;;;;;;;4.57;1.83;;;7.40;99.90;;;;;;4997578;28;92373;-72
2022/12/08 12:49:39;;;;;;;3.33;1.45;;;7.40;99.90;;;;;;4997091;28;95755;-73
2022/12/08 12:52:09;;;;;;;3.15;1.38;;;7.40;99.90;;;;;;4999101;28;92897;-72
2022/12/08 12:55:04;;;;;;;4.43;1.30;;;7.40;99.90;;;;;;4998359;28;92388;-72
2022/12/08 12:57:38;;;;;;;3.35;1.50;;;7.50;99.90;;;;;;4990984;28;92403;-72
2022/12/08 13:00:17;;;;;;;3.55;1.50;;;7.50;99.90;;;;;;4997348;28;95738;-72
2022/12/08 13:02:44;;;;;;;6.47;1.60;;;7.60;99.90;;;;;;4980418;28;98079;-72
2022/12/08 13:05:21;;;;;;;2.08;1.60;;;7.50;99.90;;;;;;4980940;28;93147;-72
2022/12/08 13:07:59;;;;;;;2.78;1.40;;;7.60;99.90;;;;;;4998758;28;92406;-73
2022/12/08 13:10:35;;;;;;;2.92;1.45;;;7.60;99.90;;;;;;4998233;28;93061;-73
2022/12/08 13:13:11;;;;;;;2.22;1.40;;;7.70;99.90;;;;;;4998327;28;92475;-73
2022/12/08 13:15:53;;;;;;;8.48;1.70;;;7.70;99.90;;;;;;4998241;28;92340;-72
2022/12/08 13:18:35;;;;;;;2.35;1.42;;;7.60;99.90;;;;;;4998838;28;91617;-72
2022/12/08 13:21:08;;;;;;;4.45;1.20;;;7.50;99.90;;;;;;4996704;28;95751;-72
2022/12/08 13:23:40;;;;;;;3.42;1.85;;;7.40;99.90;;;;;;4998622;28;92870;-73
2022/12/08 13:26:25;;;;;;;4.65;1.98;;;7.40;99.90;;;;;;5009442;28;95359;-72
2022/12/08 13:29:00;;;;;;;4.47;2.00;;;7.30;99.90;;;;;;4996999;28;92991;-73
2022/12/08 13:31:37;;;;;;;2.63;1.42;;;7.20;99.90;;;;;;4997781;28;92709;-73